Time;durP1;ratioP1;P1;durP2;ratioP2;P2;SDS_P1;SDS_P2;PMS_P1;PMS_P2;Temp;Humidity;BMP_temperature;BMP_pressure;BME280_temperature;BME280_humidity;BME280_pressure;Samples;Min_cycle;Max_cycle;Signal;HPM_P1;HPM_P2
2023/06/04 01:19:52;;;;;;;1.60;0.30;;;;;;;8.94;85.06;101088.17;103400;1307;544793;-57
2023/06/04 01:22:43;;;;;;;0.40;0.20;;;;;;;8.89;85.23;101091.30;105588;1267;137078;-57
2023/06/04 01:25:49;;;;;;;1.90;0.30;;;;;;;8.90;85.56;101092.66;105557;1288;137227;-58
2023/06/04 01:28:20;;;;;;;1.00;0.40;;;;;;;8.89;85.65;101094.98;106137;1265;138560;-58
2023/06/04 01:30:50;;;;;;;0.70;0.20;;;;;;;8.87;85.76;101093.48;105902;1281;24256;-58
2023/06/04 01:33:20;;;;;;;0.30;0.30;;;;;;;8.89;85.85;101093.77;105812;1279;354848;-58
2023/06/04 01:35:47;;;;;;;1.00;0.30;;;;;;;8.94;85.71;101095.08;106558;1272;23865;-61
2023/06/04 01:38:15;;;;;;;2.10;0.20;;;;;;;8.95;85.84;101097.09;106334;1279;137840;-58
2023/06/04 01:40:42;;;;;;;0.90;0.30;;;;;;;8.94;85.93;101100.20;106220;1273;137922;-60
2023/06/04 01:43:10;;;;;;;0.60;0.20;;;;;;;8.90;86.00;101104.63;110025;1277;22324;-60
2023/06/04 01:45:37;;;;;;;1.60;0.30;;;;;;;8.86;86.15;101103.12;109921;1261;138574;-59
2023/06/04 01:48:05;;;;;;;2.90;0.80;;;;;;;8.82;86.36;101106.34;109968;1272;137606;-59
2023/06/04 01:50:33;;;;;;;1.10;0.40;;;;;;;8.80;86.75;101108.77;110047;1273;23024;-59
2023/06/04 01:53:01;;;;;;;1.20;0.50;;;;;;;8.77;87.02;101107.73;109853;1273;137924;-59
2023/06/04 01:55:33;;;;;;;1.70;0.20;;;;;;;8.79;87.04;101104.80;110001;1277;22345;-59
2023/06/04 01:58:00;;;;;;;0.80;0.30;;;;;;;8.82;87.14;101102.73;109938;1273;138979;-59
2023/06/04 02:00:28;;;;;;;1.50;0.60;;;;;;;8.84;87.23;101107.10;109895;1273;140496;-59
2023/06/04 02:02:55;;;;;;;0.70;0.30;;;;;;;8.86;87.32;101109.04;110024;1274;22988;-59
2023/06/04 02:05:24;;;;;;;0.70;0.40;;;;;;;8.78;87.53;101099.39;109995;1271;137299;-59
2023/06/04 02:07:51;;;;;;;4.20;1.10;;;;;;;8.77;87.77;101099.61;110104;1278;22611;-59
2023/06/04 02:10:20;;;;;;;2.40;0.50;;;;;;;8.85;87.86;101112.11;110003;1275;136819;-60
2023/06/04 02:13:06;;;;;;;3.40;0.80;;;;;;;8.89;88.11;101112.80;109913;1273;138425;-59
2023/06/04 02:15:33;;;;;;;1.40;0.40;;;;;;;8.97;88.22;101116.73;110087;1278;22111;-60
2023/06/04 02:18:15;;;;;;;0.60;0.40;;;;;;;9.11;88.42;101120.59;109950;1272;138288;-59
2023/06/04 02:20:48;;;;;;;1.60;0.30;;;;;;;9.39;88.36;101122.42;110055;1272;138490;-59
2023/06/04 02:23:17;;;;;;;2.10;0.60;;;;;;;9.77;87.30;101119.83;110066;1278;22200;-60
2023/06/04 02:25:46;;;;;;;2.80;0.90;;;;;;;10.22;85.55;101117.21;109973;1276;138293;-60
2023/06/04 02:28:13;;;;;;;7.40;1.20;;;;;;;10.70;83.01;101118.90;109979;1274;139353;-58
2023/06/04 02:30:41;;;;;;;3.10;0.70;;;;;;;11.18;79.97;101115.50;110022;1271;22404;-59
2023/06/04 02:33:09;;;;;;;3.20;0.80;;;;;;;11.61;77.40;101116.11;109947;1279;138376;-60
2023/06/04 02:35:37;;;;;;;1.60;0.30;;;;;;;12.08;74.94;101121.67;110145;1278;22228;-60
2023/06/04 02:38:05;;;;;;;1.20;0.40;;;;;;;12.51;72.76;101118.59;109982;1273;138874;-60
2023/06/04 02:40:32;;;;;;;1.40;0.30;;;;;;;12.95;70.50;101114.19;109918;1273;137602;-59
2023/06/04 02:43:00;;;;;;;3.60;0.90;;;;;;;13.34;68.52;101111.69;110021;1274;22219;-59
2023/06/04 02:45:28;;;;;;;2.40;0.50;;;;;;;13.71;66.80;101115.34;110036;1271;137754;-61
2023/06/04 02:47:57;;;;;;;0.70;0.30;;;;;;;14.02;65.05;101114.52;110023;1278;22201;-59
2023/06/04 02:50:24;;;;;;;1.00;0.50;;;;;;;14.36;63.40;101114.37;109932;1273;136974;-61
2023/06/04 02:52:51;;;;;;;0.50;0.40;;;;;;;14.78;62.00;101116.95;109946;1278;137345;-59
2023/06/04 02:55:19;;;;;;;0.90;0.30;;;;;;;15.22;60.33;101115.73;110069;1275;22953;-59
2023/06/04 02:57:46;;;;;;;0.60;0.50;;;;;;;15.67;58.39;101119.31;109886;1279;138765;-63
2023/06/04 03:00:15;;;;;;;1.20;0.40;;;;;;;16.18;57.00;101120.14;109904;1272;138459;-60
2023/06/04 03:02:45;;;;;;;2.40;0.50;;;;;;;16.65;55.22;101120.46;109975;1279;22446;-60
2023/06/04 03:05:17;;;;;;;0.60;0.30;;;;;;;17.06;53.91;101123.04;109951;1274;138697;-60
2023/06/04 03:07:46;;;;;;;2.60;0.80;;;;;;;17.42;52.85;101123.90;110131;1272;22128;-60
2023/06/04 03:10:15;;;;;;;4.00;0.40;;;;;;;17.78;51.25;101126.62;109965;1273;137736;-61
2023/06/04 03:12:42;;;;;;;2.70;0.50;;;;;;;18.16;49.97;101130.08;109954;1274;138167;-59
2023/06/04 03:15:10;;;;;;;2.30;0.20;;;;;;;18.51;48.49;101133.69;110014;1274;22254;-59
2023/06/04 03:17:37;;;;;;;0.70;0.50;;;;;;;18.87;47.14;101133.36;109893;1274;137337;-61
2023/06/04 03:20:07;;;;;;;0.80;0.30;;;;;;;19.23;46.27;101134.38;109975;1275;138756;-60
2023/06/04 03:22:35;;;;;;;1.50;0.60;;;;;;;19.60;45.60;101136.90;110025;1274;22203;-60
2023/06/04 03:25:04;;;;;;;2.00;0.50;;;;;;;19.88;45.31;101140.50;110094;1272;138293;-62
2023/06/04 03:27:33;;;;;;;1.30;0.90;;;;;;;20.11;44.44;101138.65;110111;1271;22326;-61
2023/06/04 03:30:02;;;;;;;1.80;0.40;;;;;;;20.33;43.92;101140.67;110026;1277;137270;-60
2023/06/04 03:32:38;;;;;;;1.10;0.30;;;;;;;20.59;43.06;101138.91;109958;1272;138134;-62
2023/06/04 03:35:06;;;;;;;3.50;0.40;;;;;;;20.87;42.40;101143.84;110132;1278;22208;-59
2023/06/04 03:37:33;;;;;;;0.40;0.30;;;;;;;21.22;41.48;101142.67;109952;1275;138637;-59
2023/06/04 03:40:05;;;;;;;1.90;0.50;;;;;;;21.50;41.00;101143.68;110122;1257;22205;-59
2023/06/04 03:42:35;;;;;;;4.20;0.50;;;;;;;21.74;40.47;101140.03;110117;1273;22231;-59
2023/06/04 03:45:03;;;;;;;0.80;0.70;;;;;;;21.97;39.81;101140.55;109926;1258;138853;-60
2023/06/04 03:47:31;;;;;;;1.30;0.80;;;;;;;22.23;38.83;101137.20;110087;1276;22206;-61
2023/06/04 03:49:59;;;;;;;2.90;1.50;;;;;;;22.51;37.69;101137.61;110004;1271;137246;-60
2023/06/04 03:52:26;;;;;;;2.60;1.40;;;;;;;22.79;37.33;101133.16;109908;1274;139165;-60
2023/06/04 03:54:55;;;;;;;3.00;1.80;;;;;;;23.03;36.24;101130.06;110228;1277;22378;-61
2023/06/04 03:57:22;;;;;;;3.60;1.40;;;;;;;23.26;34.91;101125.52;110090;1277;137571;-61
2023/06/04 03:59:50;;;;;;;5.00;2.40;;;;;;;23.48;33.62;101127.58;110063;1271;22121;-60
2023/06/04 04:02:18;;;;;;;3.80;1.50;;;;;;;23.70;32.53;101127.16;109810;1270;138603;-60
2023/06/04 04:04:48;;;;;;;2.10;1.60;;;;;;;23.92;30.59;101126.08;109895;1270;137834;-63
2023/06/04 04:07:15;;;;;;;5.30;1.90;;;;;;;24.07;30.40;101128.50;110084;1270;22299;-61
2023/06/04 04:09:44;;;;;;;2.60;2.10;;;;;;;24.12;29.55;101128.16;109880;1270;139157;-61
2023/06/04 04:12:11;;;;;;;1.20;0.80;;;;;;;23.93;28.13;101129.85;110024;1270;138648;-59
2023/06/04 04:14:39;;;;;;;3.60;2.40;;;;;;;23.79;27.90;101134.55;110026;1270;22338;-60
2023/06/04 04:17:07;;;;;;;2.50;2.30;;;;;;;23.87;28.99;101136.72;109904;1270;138877;-61
2023/06/04 04:19:35;;;;;;;5.90;2.50;;;;;;;23.97;28.52;101144.60;109849;1270;22326;-60
2023/06/04 04:22:03;;;;;;;4.20;2.80;;;;;;;24.15;28.55;101144.70;109932;1270;138994;-61
2023/06/04 04:24:34;;;;;;;4.60;2.60;;;;;;;24.33;27.86;101145.83;109877;1270;139198;-65
2023/06/04 04:27:03;;;;;;;5.70;2.70;;;;;;;24.52;26.98;101147.27;109955;1270;22318;-60
2023/06/04 04:29:34;;;;;;;4.40;2.40;;;;;;;24.64;26.41;101150.10;109819;1270;137430;-61
2023/06/04 04:32:20;;;;;;;2.20;1.90;;;;;;;24.44;27.32;101148.09;109911;1270;23027;-61
2023/06/04 04:34:53;;;;;;;2.50;1.40;;;;;;;24.02;27.69;101135.10;109975;1270;23008;-60
2023/06/04 04:37:24;;;;;;;2.80;2.00;;;;;;;23.61;27.34;101152.38;109753;1270;140857;-62
2023/06/04 04:39:53;;;;;;;1.60;0.80;;;;;;;23.09;28.10;101159.67;109859;1270;23327;-61
2023/06/04 04:42:21;;;;;;;0.70;0.30;;;;;;;22.91;29.44;101152.19;109770;1270;137237;-62
2023/06/04 04:44:50;;;;;;;0.70;0.30;;;;;;;22.76;29.90;101158.98;109940;1270;138012;-62
2023/06/04 04:47:19;;;;;;;1.70;0.70;;;;;;;22.40;30.46;101157.20;109947;1270;22426;-63
2023/06/04 04:49:46;;;;;;;1.30;0.20;;;;;;;22.23;30.95;101158.14;109912;1270;138088;-61
2023/06/04 04:52:16;;;;;;;1.60;0.70;;;;;;;22.33;30.80;101158.56;109909;1270;137898;-61
2023/06/04 04:54:44;;;;;;;1.70;0.30;;;;;;;22.40;29.08;101157.37;109889;1270;22323;-61
2023/06/04 04:57:11;;;;;;;0.60;0.20;;;;;;;22.15;31.90;101160.94;109808;1270;137355;-60
2023/06/04 04:59:43;;;;;;;1.90;0.20;;;;;;;21.91;31.70;101157.11;109895;1270;22387;-63
2023/06/04 05:02:10;;;;;;;2.20;0.20;;;;;;;21.94;31.09;101159.77;109990;1270;137403;-60
2023/06/04 05:04:38;;;;;;;0.90;0.40;;;;;;;21.98;31.25;101156.85;109749;1270;138165;-60
2023/06/04 05:07:05;;;;;;;0.50;0.20;;;;;;;22.00;30.41;101149.39;109897;1270;22327;-61
2023/06/04 05:09:32;;;;;;;0.50;0.20;;;;;;;22.24;29.71;101151.21;109860;1270;138000;-60
2023/06/04 05:12:01;;;;;;;1.40;0.20;;;;;;;22.46;29.62;101159.20;110001;1270;22387;-62
2023/06/04 05:14:29;;;;;;;3.80;0.20;;;;;;;22.65;28.85;101161.13;109972;1270;22328;-61
2023/06/04 05:16:57;;;;;;;0.50;0.10;;;;;;;22.80;28.86;101159.64;109844;1271;137526;-61
2023/06/04 05:19:25;;;;;;;0.20;0.10;;;;;;;22.87;28.62;101161.61;110047;1270;22367;-61
2023/06/04 05:21:53;;;;;;;1.10;0.10;;;;;;;22.81;28.32;101161.90;109966;1271;137551;-61
2023/06/04 05:24:21;;;;;;;8.00;0.20;;;;;;;22.77;27.96;101166.17;109993;1270;138285;-63
2023/06/04 05:26:49;;;;;;;1.20;0.10;;;;;;;22.74;27.36;101164.84;110031;1270;23115;-60
2023/06/04 05:29:18;;;;;;;0.40;0.10;;;;;;;22.68;27.32;101165.51;109826;1270;138550;-61
2023/06/04 05:31:46;;;;;;;1.30;0.10;;;;;;;22.64;27.31;101161.76;110094;1270;23422;-61
2023/06/04 05:34:16;;;;;;;2.90;0.10;;;;;;;22.73;27.03;101167.48;109862;1270;138115;-62
2023/06/04 05:36:43;;;;;;;4.70;0.30;;;;;;;22.89;26.43;101163.74;109894;1270;139839;-59
2023/06/04 05:39:12;;;;;;;0.30;0.10;;;;;;;22.69;26.31;101166.52;109953;1270;22436;-60
2023/06/04 05:42:11;;;;;;;3.30;0.10;;;;;;;22.34;27.08;101161.23;109881;1270;137599;-60
2023/06/04 05:44:39;;;;;;;1.50;0.10;;;;;;;22.23;27.62;101162.70;109952;1270;139267;-59
2023/06/04 05:47:07;;;;;;;2.50;0.10;;;;;;;22.26;27.30;101159.80;110049;1270;22940;-59
2023/06/04 05:49:35;;;;;;;2.20;0.10;;;;;;;22.21;27.38;101163.86;109842;1259;137578;-75
2023/06/04 05:52:03;;;;;;;0.50;0.10;;;;;;;22.15;27.88;101168.45;109869;1270;138007;-72
2023/06/04 05:54:31;;;;;;;2.80;0.10;;;;;;;22.15;27.85;101165.39;109951;1270;22406;-71
2023/06/04 05:56:58;;;;;;;1.70;0.10;;;;;;;22.16;28.25;101163.67;109886;1270;138118;-69
2023/06/04 05:59:26;;;;;;;0.80;0.20;;;;;;;22.31;28.28;101161.49;109948;1270;23133;-74
2023/06/04 06:01:53;;;;;;;0.10;0.00;;;;;;;22.60;27.84;101163.44;109807;1270;138926;-71
2023/06/04 06:04:21;;;;;;;2.30;0.00;;;;;;;22.51;25.90;101146.98;109915;1259;140130;-73
2023/06/04 06:06:49;;;;;;;0.80;0.00;;;;;;;22.43;25.52;101162.63;109925;1270;22303;-72
2023/06/04 06:09:16;;;;;;;0.10;0.00;;;;;;;22.40;25.81;101162.80;110011;1271;139130;-68
2023/06/04 06:11:44;;;;;;;3.30;0.10;;;;;;;22.44;25.84;101162.81;110061;1271;22300;-70
2023/06/04 06:14:11;;;;;;;2.00;0.10;;;;;;;22.52;25.65;101169.25;109991;1270;138039;-79
2023/06/04 06:16:40;;;;;;;0.20;0.00;;;;;;;22.63;24.95;101169.39;109832;1270;138467;-73
2023/06/04 06:19:07;;;;;;;0.40;0.00;;;;;;;22.67;24.53;101168.92;110087;1270;22323;-71
2023/06/04 06:21:36;;;;;;;0.00;0.00;;;;;;;22.69;24.74;101164.05;109979;1271;138787;-69
2023/06/04 06:24:03;;;;;;;2.70;0.00;;;;;;;22.81;24.67;101164.73;109944;1270;137792;-69
2023/06/04 06:26:31;;;;;;;0.10;0.00;;;;;;;22.95;23.94;101158.98;110071;1261;23258;-77
2023/06/04 06:29:00;;;;;;;0.60;0.00;;;;;;;22.96;24.41;101157.85;109933;1270;138580;-70
2023/06/04 06:31:29;;;;;;;0.40;0.00;;;;;;;23.00;24.60;101161.13;109925;1270;23082;-77
2023/06/04 06:33:56;;;;;;;0.30;0.10;;;;;;;23.05;24.88;101165.46;109979;1271;137335;-79
2023/06/04 06:36:23;;;;;;;0.00;0.00;;;;;;;23.12;24.03;101163.59;110039;1259;138093;-73
2023/06/04 06:38:52;;;;;;;1.70;0.10;;;;;;;23.10;23.79;101164.60;109993;1260;22338;-70
2023/06/04 06:41:19;;;;;;;0.50;0.00;;;;;;;23.00;24.43;101162.94;109983;1270;137899;-73
2023/06/04 06:43:47;;;;;;;0.10;0.00;;;;;;;22.76;23.45;101168.63;110108;1270;22325;-70
2023/06/04 06:46:14;;;;;;;0.50;0.10;;;;;;;22.50;23.49;101166.92;109880;1270;137739;-73
2023/06/04 06:48:45;;;;;;;0.60;0.00;;;;;;;22.23;24.13;101165.53;110002;1271;140556;-75
2023/06/04 06:51:12;;;;;;;1.90;0.00;;;;;;;22.07;24.75;101164.50;110109;1270;23033;-74
2023/06/04 06:53:40;;;;;;;0.20;0.00;;;;;;;22.18;24.99;101160.67;109969;1270;138093;-80
2023/06/04 06:56:07;;;;;;;4.90;0.30;;;;;;;22.23;25.50;101160.27;109925;1272;138683;-77
2023/06/04 06:58:35;;;;;;;0.20;0.00;;;;;;;22.25;25.08;101156.49;110030;1270;22320;-73
2023/06/04 07:01:06;;;;;;;0.80;0.00;;;;;;;22.09;25.21;101154.42;110015;1271;138250;-76
2023/06/04 07:03:34;;;;;;;0.20;0.00;;;;;;;21.75;26.21;101158.11;110026;1270;22213;-74
2023/06/04 07:06:02;;;;;;;0.30;0.00;;;;;;;21.59;26.48;101159.82;109892;1264;139322;-74
2023/06/04 07:08:30;;;;;;;0.80;0.00;;;;;;;21.59;26.46;101159.44;109990;1270;138305;-78
2023/06/04 07:10:58;;;;;;;1.70;0.00;;;;;;;21.70;26.60;101156.61;110179;1270;22386;-78
2023/06/04 07:13:31;;;;;;;0.40;0.10;;;;;;;21.93;26.16;101156.71;109789;1271;137472;-78
2023/06/04 07:15:59;;;;;;;1.20;0.00;;;;;;;22.24;26.02;101157.48;110090;1270;22326;-78
2023/06/04 07:18:27;;;;;;;1.80;0.00;;;;;;;22.55;25.94;101159.89;109978;1270;137856;-82
2023/06/04 07:20:54;;;;;;;2.60;0.20;;;;;;;22.71;25.43;101164.09;109972;1270;138394;-80
2023/06/04 07:23:24;;;;;;;3.10;0.20;;;;;;;22.71;24.64;101168.55;110128;1271;22107;-78
2023/06/04 07:25:52;;;;;;;2.90;0.00;;;;;;;22.61;24.35;101171.33;110010;1270;137512;-79
2023/06/04 07:28:19;;;;;;;0.60;0.10;;;;;;;22.38;24.57;101170.86;110044;1270;136969;-83
2023/06/04 07:30:47;;;;;;;1.90;0.00;;;;;;;22.12;24.71;101165.89;110121;1270;23130;-74
2023/06/04 07:33:14;;;;;;;0.90;0.00;;;;;;;21.86;25.19;101162.71;110080;1270;138014;-82
2023/06/04 07:35:41;;;;;;;1.10;0.00;;;;;;;21.69;26.08;101168.08;109957;1272;22318;-76
2023/06/04 07:38:09;;;;;;;0.10;0.00;;;;;;;21.46;25.82;101169.05;110018;1270;137403;-77
2023/06/04 07:40:36;;;;;;;0.50;0.00;;;;;;;20.88;26.18;101167.48;109974;1261;138220;-80
2023/06/04 07:43:04;;;;;;;0.10;0.00;;;;;;;20.41;26.88;101166.20;109972;1270;22317;-75
2023/06/04 07:45:31;;;;;;;1.00;0.10;;;;;;;20.16;27.05;101167.25;109885;1270;139217;-76
2023/06/04 07:48:02;;;;;;;1.50;0.10;;;;;;;19.89;27.38;101174.20;110176;1261;22367;-80
2023/06/04 07:50:30;;;;;;;1.40;0.00;;;;;;;19.71;27.95;101170.27;110073;1270;22335;-71
2023/06/04 07:53:01;;;;;;;0.10;0.00;;;;;;;19.51;28.38;101172.75;110037;1270;140185;-81
2023/06/04 07:55:29;;;;;;;0.10;0.00;;;;;;;19.39;28.51;101174.57;110112;1271;22336;-73
2023/06/04 07:57:56;;;;;;;0.50;0.00;;;;;;;19.33;28.48;101171.10;110170;1270;139737;-74
2023/06/04 08:00:24;;;;;;;0.10;0.10;;;;;;;19.27;28.36;101169.14;110052;1270;137936;-77
2023/06/04 08:02:54;;;;;;;1.90;0.10;;;;;;;19.22;28.22;101167.65;110155;1259;23798;-75
2023/06/04 08:05:23;;;;;;;0.90;0.00;;;;;;;19.17;28.03;101168.75;110040;1270;137778;-71
2023/06/04 08:07:50;;;;;;;0.30;0.10;;;;;;;19.10;28.41;101171.24;110251;1270;22326;-70
2023/06/04 08:10:17;;;;;;;2.50;0.10;;;;;;;19.07;28.52;101169.40;109978;1270;138492;-69
2023/06/04 08:12:45;;;;;;;0.30;0.10;;;;;;;18.98;28.59;101166.84;110071;1270;139400;-73
2023/06/04 08:15:13;;;;;;;0.30;0.00;;;;;;;18.88;29.46;101167.02;110154;1270;22328;-71
2023/06/04 08:17:40;;;;;;;0.60;0.00;;;;;;;18.90;29.45;101168.04;110087;1269;138788;-76
2023/06/04 08:20:11;;;;;;;1.00;0.10;;;;;;;18.95;29.28;101165.38;110016;1270;138068;-71
2023/06/04 08:22:38;;;;;;;2.30;0.10;;;;;;;18.98;29.23;101163.64;110158;1270;22324;-75
2023/06/04 08:25:06;;;;;;;1.00;0.10;;;;;;;19.05;29.09;101166.97;110071;1269;139281;-72
2023/06/04 08:27:34;;;;;;;0.40;0.00;;;;;;;19.07;28.93;101163.88;110089;1269;22405;-74
2023/06/04 08:30:02;;;;;;;0.10;0.00;;;;;;;19.06;28.86;101159.22;110051;1269;139071;-67
2023/06/04 08:32:30;;;;;;;0.40;0.10;;;;;;;19.04;29.14;101161.81;110040;1261;141319;-78
2023/06/04 08:34:57;;;;;;;0.20;0.10;;;;;;;19.05;28.93;101163.46;110127;1270;22338;-77
2023/06/04 08:37:25;;;;;;;2.40;0.00;;;;;;;19.05;28.17;101162.34;110187;1269;136528;-76
2023/06/04 08:39:52;;;;;;;1.30;0.10;;;;;;;19.02;28.06;101160.89;110277;1271;22471;-68
2023/06/04 08:42:30;;;;;;;0.80;0.00;;;;;;;19.01;28.35;101156.11;110030;1270;138012;-71
2023/06/04 08:44:58;;;;;;;3.00;0.10;;;;;;;18.98;28.34;101157.69;110037;1272;137829;-74
2023/06/04 08:47:26;;;;;;;0.90;0.00;;;;;;;18.93;28.38;101155.26;110148;1270;22345;-76
2023/06/04 08:49:58;;;;;;;0.40;0.00;;;;;;;18.89;28.64;101154.77;110040;1270;139384;-76
2023/06/04 08:52:27;;;;;;;0.10;0.00;;;;;;;18.84;29.02;101153.18;110066;1269;139137;-68
2023/06/04 08:54:56;;;;;;;0.10;0.00;;;;;;;18.85;28.78;101155.20;110123;1257;23110;-74
2023/06/04 08:57:24;;;;;;;0.30;0.00;;;;;;;18.90;28.76;101154.70;110054;1270;137518;-77
2023/06/04 08:59:51;;;;;;;0.10;0.00;;;;;;;18.98;28.66;101151.38;110087;1261;22347;-82
2023/06/04 09:02:19;;;;;;;0.60;0.00;;;;;;;19.05;28.94;101148.93;109975;1270;139585;-74
2023/06/04 09:04:46;;;;;;;2.20;0.00;;;;;;;19.00;28.91;101150.07;110061;1269;139451;-73
2023/06/04 09:07:14;;;;;;;1.20;0.10;;;;;;;18.91;29.21;101146.84;110132;1270;22866;-70
2023/06/04 09:09:45;;;;;;;0.10;0.00;;;;;;;18.83;29.84;101128.34;110059;1269;140865;-70
2023/06/04 09:12:25;;;;;;;0.20;0.10;;;;;;;18.96;30.05;101137.39;109991;1271;138276;-68
2023/06/04 09:14:52;;;;;;;1.80;0.20;;;;;;;19.01;29.75;101141.53;109925;1270;22440;-76
2023/06/04 09:17:23;;;;;;;1.10;0.50;;;;;;;18.99;29.26;101134.20;109972;1271;138736;-71
2023/06/04 09:19:51;;;;;;;0.30;0.10;;;;;;;18.92;29.46;101134.61;110064;1261;22340;-68
2023/06/04 09:22:19;;;;;;;1.70;0.10;;;;;;;18.90;29.73;101126.98;109984;1260;137318;-73
2023/06/04 09:24:50;;;;;;;0.40;0.10;;;;;;;18.84;29.64;101120.06;109903;1270;137741;-71
2023/06/04 09:27:20;;;;;;;0.10;0.00;;;;;;;18.91;29.63;101130.30;110153;1270;23020;-68
2023/06/04 09:29:52;;;;;;;5.40;0.60;;;;;;;18.86;30.10;101125.20;110032;1269;139207;-72
2023/06/04 09:32:28;;;;;;;3.20;0.10;;;;;;;18.87;30.13;101121.98;110061;1269;139163;-78
2023/06/04 09:35:12;;;;;;;1.30;0.60;;;;;;;18.94;29.72;101125.90;110084;1270;22339;-75
2023/06/04 09:37:41;;;;;;;3.10;0.20;;;;;;;18.95;29.32;101124.89;109980;1270;139316;-80
2023/06/04 09:40:09;;;;;;;0.30;0.10;;;;;;;18.92;29.63;101121.15;110053;1270;137833;-78
2023/06/04 09:42:44;;;;;;;2.60;0.10;;;;;;;18.96;29.47;101123.55;110099;1270;22983;-77
2023/06/04 09:45:12;;;;;;;0.10;0.00;;;;;;;19.00;29.04;101120.46;110080;1270;141318;-81
2023/06/04 09:47:43;;;;;;;0.50;0.20;;;;;;;18.99;29.21;101117.48;110084;1269;22333;-82
2023/06/04 09:50:12;;;;;;;0.40;0.10;;;;;;;18.99;29.13;101117.58;109993;1270;138142;-84
2023/06/04 09:52:42;;;;;;;0.30;0.10;;;;;;;18.96;29.25;101110.76;110080;1270;139196;-86
2023/06/04 09:55:19;;;;;;;0.50;0.20;;;;;;;18.94;29.40;101111.65;110267;1269;22333;-83
2023/06/04 09:57:50;;;;;;;0.80;0.10;;;;;;;18.92;29.10;101113.66;110146;1269;138046;-78
2023/06/04 10:00:20;;;;;;;1.20;0.20;;;;;;;18.93;28.93;101109.45;110119;1270;138773;-78
2023/06/04 10:02:49;;;;;;;0.50;0.10;;;;;;;18.96;28.90;101105.88;110261;1270;22323;-81
2023/06/04 10:05:21;;;;;;;0.50;0.10;;;;;;;19.02;28.94;101101.96;110035;1270;138157;-77
2023/06/04 10:07:52;;;;;;;0.10;0.10;;;;;;;19.09;28.84;101091.44;110217;1270;22330;-81
2023/06/04 10:10:23;;;;;;;1.10;0.20;;;;;;;19.19;28.35;101091.23;109987;1270;138942;-86
2023/06/04 10:13:01;;;;;;;0.70;0.30;;;;;;;19.26;28.09;101088.73;110034;1270;139383;-83
2023/06/04 10:15:28;;;;;;;3.10;0.00;;;;;;;19.30;27.92;101088.52;110161;1270;23053;-82
2023/06/04 10:17:56;;;;;;;0.60;0.00;;;;;;;19.31;27.05;101084.09;110018;1270;140018;-83
2023/06/04 10:20:24;;;;;;;0.40;0.00;;;;;;;19.27;27.19;101086.77;109945;1270;137726;-83
2023/06/04 10:22:51;;;;;;;0.60;0.00;;;;;;;19.24;26.32;101089.60;110054;1272;22308;-71
2023/06/04 10:25:20;;;;;;;0.40;0.10;;;;;;;19.21;26.41;101090.21;110142;1269;137623;-85
2023/06/04 10:27:50;;;;;;;0.20;0.00;;;;;;;19.19;26.54;101087.77;110061;1265;22338;-79
2023/06/04 10:30:17;;;;;;;0.20;0.10;;;;;;;19.14;26.79;101082.77;110047;1270;137369;-78
2023/06/04 10:32:46;;;;;;;0.20;0.10;;;;;;;19.12;26.99;101081.38;110087;1259;138574;-79
2023/06/04 10:35:15;;;;;;;0.80;0.10;;;;;;;19.17;27.11;101083.69;110189;1270;22264;-81
2023/06/04 10:37:43;;;;;;;0.80;0.00;;;;;;;19.22;27.24;101076.15;110168;1259;138158;-76
2023/06/04 10:40:10;;;;;;;1.00;0.10;;;;;;;19.27;27.57;101077.90;110171;1270;139703;-79
2023/06/04 10:42:42;;;;;;;0.60;0.10;;;;;;;19.30;27.26;101078.83;110199;1270;22382;-82
2023/06/04 10:45:10;;;;;;;1.40;0.10;;;;;;;19.30;27.40;101074.55;110267;1270;137839;-85
2023/06/04 10:47:40;;;;;;;0.10;0.10;;;;;;;19.32;27.51;101072.73;110164;1272;22391;-88
2023/06/04 10:50:11;;;;;;;0.00;0.00;;;;;;;19.34;27.05;101071.12;110003;1271;140178;-79
2023/06/04 10:52:51;;;;;;;0.70;0.10;;;;;;;19.39;26.78;101070.05;109928;1264;138073;-90
2023/06/04 10:55:18;;;;;;;0.30;0.10;;;;;;;19.42;27.00;101063.77;110052;1271;22318;-84
2023/06/04 10:57:56;;;;;;;0.20;0.10;;;;;;;19.40;26.23;101063.02;109927;1271;137815;-85
2023/06/04 11:00:48;;;;;;;0.10;0.10;;;;;;;19.35;26.44;101064.00;110221;1272;137108;-91
2023/06/04 11:03:17;;;;;;;0.60;0.10;;;;;;;19.33;26.75;101055.46;110323;1271;22321;-92
2023/06/04 11:05:48;;;;;;;0.40;0.10;;;;;;;19.38;26.75;101048.98;110169;1270;137871;-88
2023/06/04 11:08:30;;;;;;;2.10;0.10;;;;;;;19.45;27.05;101044.43;110102;1272;138136;-84
2023/06/04 11:10:57;;;;;;;0.40;0.20;;;;;;;19.57;27.16;101042.80;109976;1272;22986;-78
2023/06/04 11:13:28;;;;;;;0.60;0.10;;;;;;;19.70;26.84;101041.29;109909;1273;137792;-76
2023/06/04 11:15:55;;;;;;;1.00;0.30;;;;;;;19.77;26.53;101035.27;109921;1271;22344;-75
2023/06/04 11:18:26;;;;;;;0.20;0.10;;;;;;;19.78;26.33;101031.61;109939;1271;137321;-70
2023/06/04 11:21:03;;;;;;;2.30;0.00;;;;;;;19.73;26.55;101020.13;109791;1271;138744;-71
2023/06/04 11:23:33;;;;;;;0.40;0.00;;;;;;;19.72;26.08;101014.05;109917;1274;22314;-76
2023/06/04 11:26:01;;;;;;;0.50;0.10;;;;;;;19.73;26.20;101027.98;109963;1273;137868;-71
2023/06/04 11:28:28;;;;;;;0.20;0.10;;;;;;;19.71;26.29;101026.86;109833;1275;138695;-72
2023/06/04 11:31:08;;;;;;;1.00;0.10;;;;;;;19.73;26.26;101025.42;110064;1272;23118;-78
2023/06/04 11:33:44;;;;;;;0.20;0.10;;;;;;;19.70;26.29;101013.88;109834;1276;137488;-73
2023/06/04 11:36:28;;;;;;;0.20;0.10;;;;;;;19.72;26.23;101022.78;109897;1271;138564;-74
2023/06/04 11:38:57;;;;;;;0.10;0.00;;;;;;;19.65;26.54;101017.50;109947;1272;22383;-78
2023/06/04 11:41:30;;;;;;;0.70;0.10;;;;;;;19.68;27.10;101019.02;110002;1262;139664;-85
2023/06/04 11:44:01;;;;;;;0.10;0.10;;;;;;;19.74;26.48;101019.67;110165;1270;22275;-79
2023/06/04 11:46:28;;;;;;;0.70;0.20;;;;;;;19.74;26.54;101016.32;109992;1271;22174;-75
2023/06/04 11:48:56;;;;;;;0.20;0.10;;;;;;;19.71;26.88;101021.80;109878;1273;139616;-70
2023/06/04 11:51:24;;;;;;;3.30;0.20;;;;;;;19.72;26.65;101023.79;110057;1272;22324;-77
2023/06/04 11:53:52;;;;;;;0.50;0.10;;;;;;;19.71;26.60;101027.29;109971;1271;139251;-75
2023/06/04 11:56:19;;;;;;;0.60;0.10;;;;;;;19.70;26.52;101024.29;109991;1271;139549;-78
2023/06/04 11:58:47;;;;;;;1.40;0.10;;;;;;;19.73;26.54;101023.10;110199;1271;22117;-72
2023/06/04 12:01:14;;;;;;;0.20;0.10;;;;;;;19.76;26.36;101022.57;109926;1271;138753;-69
2023/06/04 12:03:42;;;;;;;0.70;0.20;;;;;;;19.71;26.10;101023.46;109968;1273;22298;-76
2023/06/04 12:06:16;;;;;;;1.40;0.20;;;;;;;19.62;26.22;101024.63;110137;1272;137778;-70
2023/06/04 12:08:52;;;;;;;0.30;0.10;;;;;;;19.59;26.36;101020.76;109915;1271;138200;-71
2023/06/04 12:11:31;;;;;;;0.20;0.10;;;;;;;19.57;26.48;101017.91;110043;1272;22542;-75
2023/06/04 12:14:04;;;;;;;0.50;0.10;;;;;;;19.54;26.48;101017.47;109977;1271;137885;-72
2023/06/04 12:16:33;;;;;;;0.80;0.10;;;;;;;19.53;26.55;101013.33;109861;1272;139900;-69
2023/06/04 12:19:08;;;;;;;0.30;0.10;;;;;;;19.54;26.52;101014.05;110029;1272;22324;-74
2023/06/04 12:21:36;;;;;;;0.40;0.10;;;;;;;19.54;26.58;101018.59;109843;1271;138692;-73
2023/06/04 12:24:08;;;;;;;2.80;0.20;;;;;;;19.52;26.48;101014.88;109877;1262;137426;-74
2023/06/04 12:26:40;;;;;;;0.20;0.20;;;;;;;19.49;26.61;101010.19;110024;1273;22302;-78
2023/06/04 12:29:15;;;;;;;1.00;0.10;;;;;;;19.48;26.72;101007.41;109864;1273;138462;-70
2023/06/04 12:31:45;;;;;;;1.20;0.20;;;;;;;19.52;26.87;101000.48;109948;1267;22340;-73
2023/06/04 12:34:17;;;;;;;0.30;0.10;;;;;;;19.58;27.08;101003.02;109832;1272;138339;-77
2023/06/04 12:36:44;;;;;;;0.20;0.10;;;;;;;19.67;27.42;100996.05;109996;1271;138117;-79
2023/06/04 12:39:12;;;;;;;1.80;0.10;;;;;;;19.77;27.40;100994.80;110081;1271;23085;-76
2023/06/04 12:41:45;;;;;;;0.70;0.20;;;;;;;19.84;27.24;100995.56;109826;1272;138500;-80